Time;durP1;ratioP1;P1;durP2;ratioP2;P2;SDS_P1;SDS_P2;PMS_P1;PMS_P2;Temp;Humidity;BMP_temperature;BMP_pressure;BME280_temperature;BME280_humidity;BME280_pressure;Samples;Min_cycle;Max_cycle;Signal;HPM_P1;HPM_P2
2024/01/27 00:00:05;;;;;;;2.65;1.50;;;5.20;90.20;;;;;;4982516;28;20031;-70
2024/01/27 00:02:31;;;;;;;2.65;1.25;;;5.20;90.20;;;;;;4979836;28;20038;-68
2024/01/27 00:04:56;;;;;;;2.45;1.50;;;5.10;90.20;;;;;;4975305;28;20500;-69
2024/01/27 00:07:22;;;;;;;3.22;1.20;;;5.10;90.30;;;;;;4987494;28;20022;-68
2024/01/27 00:09:47;;;;;;;1.77;1.40;;;5.10;90.30;;;;;;4985114;28;20069;-70
2024/01/27 00:12:13;;;;;;;4.63;1.98;;;5.10;90.40;;;;;;4983994;28;20072;-68
2024/01/27 00:14:39;;;;;;;4.68;1.60;;;5.20;90.40;;;;;;4992330;28;20038;-70
2024/01/27 00:17:05;;;;;;;4.85;1.38;;;5.20;90.40;;;;;;4994481;28;20496;-69
2024/01/27 00:19:30;;;;;;;2.03;1.40;;;5.20;90.40;;;;;;4989936;28;20091;-68
2024/01/27 00:21:56;;;;;;;3.60;1.40;;;5.20;90.40;;;;;;4990128;28;20522;-68
2024/01/27 00:24:22;;;;;;;3.08;1.45;;;5.20;90.40;;;;;;4989347;28;20548;-69
2024/01/27 00:26:47;;;;;;;3.35;1.40;;;5.20;90.40;;;;;;4989165;28;20389;-68
2024/01/27 00:29:13;;;;;;;3.05;1.42;;;5.20;90.40;;;;;;4983657;28;20023;-68
2024/01/27 00:31:38;;;;;;;1.63;1.38;;;5.20;90.40;;;;;;4987115;28;20031;-68
2024/01/27 00:34:04;;;;;;;2.55;1.30;;;5.20;90.40;;;;;;4988165;28;20030;-68
2024/01/27 00:36:30;;;;;;;2.47;1.25;;;5.20;90.40;;;;;;4987227;28;20053;-69
2024/01/27 00:38:55;;;;;;;3.05;1.25;;;5.20;90.40;;;;;;4986093;28;20022;-68
2024/01/27 00:41:21;;;;;;;2.58;1.30;;;5.20;90.40;;;;;;4991266;28;20030;-68
2024/01/27 00:43:47;;;;;;;2.63;1.10;;;5.10;90.40;;;;;;4990983;28;20026;-68
2024/01/27 00:46:12;;;;;;;1.50;1.10;;;5.10;90.40;;;;;;4989838;28;20412;-68
2024/01/27 00:48:38;;;;;;;5.78;1.30;;;5.10;90.50;;;;;;4983893;28;20054;-68
2024/01/27 00:51:03;;;;;;;2.70;1.33;;;5.10;90.50;;;;;;4990503;28;20274;-68
2024/01/27 00:53:29;;;;;;;3.13;1.45;;;5.00;90.50;;;;;;4987947;28;20026;-68
2024/01/27 00:55:55;;;;;;;3.08;1.30;;;5.00;90.50;;;;;;4988999;28;20018;-68
2024/01/27 00:58:20;;;;;;;4.32;1.30;;;5.00;90.50;;;;;;4983575;28;20490;-69
2024/01/27 01:00:46;;;;;;;2.05;1.17;;;5.10;90.60;;;;;;4990132;28;20085;-69
2024/01/27 01:03:11;;;;;;;2.45;1.20;;;5.10;90.60;;;;;;4989272;28;20105;-69
2024/01/27 01:05:37;;;;;;;1.88;1.15;;;5.10;90.60;;;;;;4993800;28;20032;-69
2024/01/27 01:08:03;;;;;;;3.70;1.40;;;5.10;90.60;;;;;;4994941;28;20461;-68
2024/01/27 01:10:29;;;;;;;1.98;1.27;;;5.00;90.50;;;;;;4994582;28;20111;-67
2024/01/27 01:12:54;;;;;;;4.07;1.50;;;5.00;90.60;;;;;;4992504;28;20084;-68
2024/01/27 01:15:20;;;;;;;3.65;1.40;;;5.00;90.60;;;;;;5008939;28;20026;-67
2024/01/27 01:17:46;;;;;;;4.65;1.63;;;5.00;90.60;;;;;;4991134;28;20085;-69
2024/01/27 01:20:11;;;;;;;3.05;1.48;;;5.00;90.50;;;;;;4993839;28;20034;-68
2024/01/27 01:22:37;;;;;;;1.60;1.10;;;5.00;90.60;;;;;;4994031;28;20034;-69
2024/01/27 01:25:02;;;;;;;1.30;1.20;;;5.00;90.60;;;;;;4991836;28;20019;-68
2024/01/27 01:27:28;;;;;;;3.22;1.30;;;4.90;90.60;;;;;;4992656;28;20026;-70
2024/01/27 01:29:54;;;;;;;3.13;1.20;;;4.90;90.70;;;;;;4992338;28;20503;-69
2024/01/27 01:32:20;;;;;;;3.63;1.35;;;4.90;90.80;;;;;;4991831;28;20129;-68
2024/01/27 01:34:46;;;;;;;3.25;1.42;;;4.80;90.80;;;;;;4988078;28;20030;-69
2024/01/27 01:37:13;;;;;;;3.30;1.33;;;4.80;90.80;;;;;;4992288;28;20029;-70
2024/01/27 01:39:39;;;;;;;1.88;1.23;;;4.80;90.80;;;;;;4990254;28;20020;-68
2024/01/27 01:42:04;;;;;;;2.83;1.33;;;4.80;90.90;;;;;;4987546;28;20102;-68
2024/01/27 01:44:31;;;;;;;4.45;1.23;;;4.80;90.80;;;;;;4991759;28;20030;-68
2024/01/27 01:46:58;;;;;;;2.53;1.42;;;4.80;90.90;;;;;;4992423;28;20028;-69
2024/01/27 01:49:23;;;;;;;3.92;1.50;;;4.80;90.90;;;;;;4993113;28;20057;-68
2024/01/27 01:51:49;;;;;;;3.85;1.70;;;4.80;90.90;;;;;;4993484;28;20050;-68
2024/01/27 01:54:15;;;;;;;3.30;1.30;;;4.90;91.00;;;;;;4992192;28;20536;-67
2024/01/27 01:56:42;;;;;;;1.77;1.30;;;4.90;90.90;;;;;;4992082;28;20038;-67
2024/01/27 01:59:08;;;;;;;2.25;1.05;;;4.90;90.80;;;;;;4984951;28;20081;-68
2024/01/27 02:01:33;;;;;;;2.63;1.33;;;4.90;90.80;;;;;;4991326;28;20536;-67
2024/01/27 02:03:59;;;;;;;2.35;1.20;;;4.90;90.80;;;;;;4990524;28;20037;-68
2024/01/27 02:06:25;;;;;;;3.03;1.35;;;4.90;90.90;;;;;;4992280;28;20022;-68
2024/01/27 02:08:51;;;;;;;2.90;1.25;;;4.80;90.80;;;;;;4991044;28;20031;-68
2024/01/27 02:11:17;;;;;;;2.67;1.33;;;4.80;90.90;;;;;;4990014;28;20025;-68
2024/01/27 02:13:43;;;;;;;4.63;1.50;;;4.80;90.90;;;;;;4991949;28;20030;-68
2024/01/27 02:16:08;;;;;;;2.55;1.15;;;4.80;90.90;;;;;;5004818;28;20114;-68
2024/01/27 02:18:34;;;;;;;1.85;1.20;;;4.80;91.00;;;;;;4988438;28;20113;-69
2024/01/27 02:21:00;;;;;;;3.30;1.83;;;4.70;91.00;;;;;;4991030;28;20058;-68
2024/01/27 02:23:25;;;;;;;3.20;1.30;;;4.70;91.00;;;;;;4991484;28;20033;-69
2024/01/27 02:25:51;;;;;;;2.55;1.35;;;4.80;91.10;;;;;;4991597;28;20026;-67
2024/01/27 02:28:17;;;;;;;2.17;1.20;;;4.80;91.00;;;;;;4994699;28;20072;-68
2024/01/27 02:30:42;;;;;;;1.80;1.02;;;4.80;91.00;;;;;;4998384;28;20050;-69
2024/01/27 02:33:08;;;;;;;2.38;1.40;;;4.80;91.00;;;;;;4995516;28;20023;-68
2024/01/27 02:35:34;;;;;;;3.67;1.20;;;4.80;91.00;;;;;;4982236;28;20031;-69
2024/01/27 02:37:59;;;;;;;3.10;1.50;;;4.70;91.00;;;;;;4991214;28;20109;-69
2024/01/27 02:40:25;;;;;;;3.22;1.42;;;4.70;91.10;;;;;;4991121;28;20026;-68
2024/01/27 02:42:50;;;;;;;2.30;1.40;;;4.70;91.10;;;;;;4997226;28;20384;-70
2024/01/27 02:45:16;;;;;;;2.80;1.30;;;4.70;91.10;;;;;;4990778;28;20168;-70
2024/01/27 02:47:42;;;;;;;2.33;1.40;;;4.60;91.20;;;;;;4990841;28;20042;-70
2024/01/27 02:50:08;;;;;;;3.25;1.63;;;4.60;91.20;;;;;;4990884;28;20026;-69
2024/01/27 02:52:34;;;;;;;4.53;2.25;;;4.70;91.20;;;;;;4994685;28;20022;-69
2024/01/27 02:55:00;;;;;;;3.72;1.55;;;4.60;91.10;;;;;;4986981;28;20042;-69
2024/01/27 02:57:25;;;;;;;2.35;1.58;;;4.60;91.10;;;;;;4997063;28;20038;-70
2024/01/27 02:59:51;;;;;;;2.58;1.80;;;4.60;91.10;;;;;;4991230;28;20034;-69
2024/01/27 03:02:16;;;;;;;1.95;1.30;;;4.60;91.10;;;;;;4990859;28;20046;-68
2024/01/27 03:04:42;;;;;;;2.22;1.33;;;4.50;91.20;;;;;;4987290;28;20121;-68
2024/01/27 03:07:08;;;;;;;3.42;1.25;;;4.60;91.20;;;;;;4992844;28;20142;-69
2024/01/27 03:09:33;;;;;;;3.63;1.40;;;4.60;91.20;;;;;;4991080;28;20029;-68
2024/01/27 03:11:59;;;;;;;2.80;1.40;;;4.60;91.20;;;;;;4988168;28;20027;-69
2024/01/27 03:14:25;;;;;;;2.83;1.42;;;4.60;91.20;;;;;;4989508;28;20093;-68
2024/01/27 03:16:50;;;;;;;1.90;1.30;;;4.60;91.20;;;;;;4990732;28;20029;-69
2024/01/27 03:19:16;;;;;;;2.97;1.40;;;4.50;91.20;;;;;;4990740;28;20496;-67
2024/01/27 03:21:42;;;;;;;3.80;1.25;;;4.50;91.20;;;;;;4989996;28;20057;-67
2024/01/27 03:24:07;;;;;;;3.13;1.40;;;4.50;91.20;;;;;;4989474;28;20389;-68
2024/01/27 03:26:33;;;;;;;3.50;1.55;;;4.50;91.20;;;;;;4992184;28;20037;-68
2024/01/27 03:28:58;;;;;;;2.05;1.30;;;4.60;91.30;;;;;;4988419;28;20022;-68
2024/01/27 03:31:30;;;;;;;4.35;1.50;;;4.60;91.30;;;;;;4984018;28;20026;-70
2024/01/27 03:33:56;;;;;;;2.03;1.40;;;4.50;91.20;;;;;;4991314;28;20037;-69
2024/01/27 03:36:22;;;;;;;4.63;1.63;;;4.50;91.20;;;;;;4989979;28;20035;-69
2024/01/27 03:38:47;;;;;;;3.33;1.50;;;4.50;91.30;;;;;;4994302;28;20092;-68
2024/01/27 03:41:13;;;;;;;3.55;1.60;;;4.50;91.20;;;;;;4994319;28;20034;-68
2024/01/27 03:43:39;;;;;;;2.20;1.38;;;4.50;91.30;;;;;;4990149;28;20034;-69
2024/01/27 03:46:04;;;;;;;3.53;1.80;;;4.40;91.30;;;;;;4990072;28;20064;-69
2024/01/27 03:48:30;;;;;;;5.43;1.77;;;4.40;91.30;;;;;;4984701;28;20058;-68
2024/01/27 03:50:55;;;;;;;4.60;2.03;;;4.40;91.40;;;;;;4989092;28;20568;-68
2024/01/27 03:53:21;;;;;;;3.33;1.90;;;4.40;91.30;;;;;;4995705;28;20022;-69
2024/01/27 03:55:47;;;;;;;4.25;1.60;;;4.40;91.30;;;;;;4989524;28;20036;-69
2024/01/27 03:58:12;;;;;;;4.93;2.00;;;4.40;91.40;;;;;;4993166;28;20026;-69
2024/01/27 04:00:38;;;;;;;3.88;2.08;;;4.30;91.40;;;;;;4993203;28;20073;-69
2024/01/27 04:03:03;;;;;;;4.57;1.85;;;4.30;91.40;;;;;;4981981;28;20030;-70
2024/01/27 04:05:30;;;;;;;3.55;1.70;;;4.30;91.40;;;;;;4987743;28;20034;-70
2024/01/27 04:07:56;;;;;;;3.78;1.60;;;4.30;91.40;;;;;;4991017;28;20029;-70
2024/01/27 04:10:22;;;;;;;4.05;1.85;;;4.30;91.40;;;;;;4991428;28;20022;-70
2024/01/27 04:12:48;;;;;;;5.63;2.40;;;4.30;91.40;;;;;;4990736;28;20022;-70
2024/01/27 04:15:14;;;;;;;7.82;2.38;;;4.20;91.30;;;;;;4990548;28;20084;-70
2024/01/27 04:17:41;;;;;;;4.78;2.40;;;4.20;91.40;;;;;;4986673;28;20030;-69
2024/01/27 04:20:08;;;;;;;3.75;1.90;;;4.20;91.40;;;;;;4989284;28;20030;-68
2024/01/27 04:22:34;;;;;;;3.58;1.80;;;4.20;91.40;;;;;;4985288;28;20034;-68
2024/01/27 04:25:00;;;;;;;5.57;1.90;;;4.20;91.40;;;;;;4986363;28;20030;-67
2024/01/27 04:27:28;;;;;;;3.05;2.08;;;4.20;91.40;;;;;;4986029;28;20050;-67
2024/01/27 04:29:54;;;;;;;2.35;1.60;;;4.20;91.40;;;;;;4981024;28;20575;-67
2024/01/27 04:32:21;;;;;;;6.90;2.50;;;4.10;91.30;;;;;;4988742;28;20030;-70
2024/01/27 04:34:47;;;;;;;5.10;2.10;;;4.10;91.30;;;;;;4990921;28;20408;-68
2024/01/27 04:37:12;;;;;;;4.97;2.28;;;4.10;91.40;;;;;;4991242;28;20041;-67
2024/01/27 04:39:38;;;;;;;3.45;1.60;;;4.10;91.40;;;;;;4988581;28;20037;-67
2024/01/27 04:42:06;;;;;;;3.95;1.70;;;4.10;91.40;;;;;;4988095;28;20037;-67
2024/01/27 04:44:31;;;;;;;2.55;1.77;;;4.10;91.40;;;;;;4991446;28;20084;-68
2024/01/27 04:46:57;;;;;;;2.70;1.60;;;4.10;91.40;;;;;;4990301;28;20497;-68
2024/01/27 04:49:23;;;;;;;3.08;1.60;;;4.10;91.40;;;;;;4994681;28;20530;-69
2024/01/27 04:51:48;;;;;;;2.53;1.50;;;4.00;91.40;;;;;;4981662;28;20019;-68
2024/01/27 04:54:14;;;;;;;3.95;2.20;;;4.00;91.40;;;;;;4985658;28;20621;-66
2024/01/27 04:56:39;;;;;;;4.13;2.13;;;4.00;91.70;;;;;;4990210;28;20030;-67
2024/01/27 04:59:05;;;;;;;2.88;1.80;;;3.90;91.50;;;;;;4988194;28;20018;-68
2024/01/27 05:01:31;;;;;;;3.25;2.10;;;3.90;91.60;;;;;;4980985;28;20031;-68
2024/01/27 05:03:57;;;;;;;4.35;2.20;;;3.90;91.60;;;;;;4988349;28;20065;-68
2024/01/27 05:06:22;;;;;;;5.18;2.78;;;3.90;91.60;;;;;;4983175;28;20046;-70
2024/01/27 05:08:48;;;;;;;5.15;2.30;;;3.90;91.70;;;;;;4988464;28;20030;-68
2024/01/27 05:11:13;;;;;;;2.67;2.00;;;3.90;91.70;;;;;;4988282;28;20077;-69
2024/01/27 05:13:40;;;;;;;3.72;1.80;;;3.90;91.70;;;;;;4989309;28;20030;-68
2024/01/27 05:16:06;;;;;;;5.18;2.40;;;3.80;91.70;;;;;;4994133;28;20030;-68
2024/01/27 05:18:31;;;;;;;3.33;2.08;;;3.80;91.70;;;;;;4990595;28;20018;-69
2024/01/27 05:20:57;;;;;;;5.10;2.10;;;3.80;91.70;;;;;;4987245;28;20377;-70
2024/01/27 05:23:23;;;;;;;5.10;2.58;;;3.80;91.80;;;;;;4992516;28;20030;-69
2024/01/27 05:25:49;;;;;;;4.80;2.88;;;3.80;91.80;;;;;;4988424;28;20064;-69
2024/01/27 05:28:14;;;;;;;4.57;2.22;;;3.80;91.90;;;;;;4985200;28;20404;-71
2024/01/27 05:30:40;;;;;;;5.40;2.75;;;3.80;91.90;;;;;;4989211;28;20485;-70
2024/01/27 05:33:05;;;;;;;3.65;2.17;;;3.80;91.90;;;;;;4986144;28;20026;-69
2024/01/27 05:35:31;;;;;;;7.55;3.30;;;3.80;91.80;;;;;;4988956;28;20034;-69
2024/01/27 05:37:57;;;;;;;4.78;2.80;;;3.80;91.80;;;;;;4990500;28;20101;-69
2024/01/27 05:40:22;;;;;;;5.05;2.53;;;3.80;91.80;;;;;;4989890;28;20077;-69
2024/01/27 05:42:49;;;;;;;5.25;2.63;;;3.80;91.80;;;;;;4993727;28;20054;-69
2024/01/27 05:45:15;;;;;;;4.45;2.53;;;3.70;91.80;;;;;;4988447;28;20041;-69
2024/01/27 05:47:41;;;;;;;7.60;2.83;;;3.70;91.90;;;;;;4989454;28;20022;-68
2024/01/27 05:50:08;;;;;;;4.82;2.47;;;3.70;91.90;;;;;;4981817;28;20018;-69
2024/01/27 05:52:34;;;;;;;3.75;2.47;;;3.80;92.00;;;;;;4978555;28;20050;-68
2024/01/27 05:55:00;;;;;;;5.15;2.78;;;3.80;92.00;;;;;;4986389;28;20393;-67
2024/01/27 05:57:26;;;;;;;7.03;3.00;;;3.80;92.00;;;;;;4983272;28;20169;-69
2024/01/27 05:59:51;;;;;;;4.40;2.20;;;3.80;92.00;;;;;;4984708;28;20505;-70
2024/01/27 06:02:17;;;;;;;6.20;3.03;;;3.80;92.00;;;;;;4984852;28;20506;-68
2024/01/27 06:04:43;;;;;;;4.65;2.50;;;3.80;92.00;;;;;;4984216;28;20030;-67
2024/01/27 06:07:09;;;;;;;6.40;3.05;;;3.80;92.00;;;;;;4982053;28;20023;-70
2024/01/27 06:09:36;;;;;;;5.97;2.92;;;3.80;92.00;;;;;;4978500;28;20031;-69
2024/01/27 06:12:02;;;;;;;4.72;2.60;;;3.80;92.00;;;;;;4993567;28;20591;-68
2024/01/27 06:14:27;;;;;;;7.93;3.30;;;3.80;92.00;;;;;;5002476;28;20034;-68
2024/01/27 06:16:53;;;;;;;9.15;3.97;;;3.80;92.00;;;;;;5000634;28;20033;-67
2024/01/27 06:19:19;;;;;;;8.13;3.45;;;3.80;92.00;;;;;;4991768;28;20560;-68
2024/01/27 06:21:44;;;;;;;6.03;3.05;;;3.60;92.00;;;;;;4999131;28;20396;-70
2024/01/27 06:24:10;;;;;;;5.75;2.97;;;3.70;92.00;;;;;;4984474;28;20062;-69
2024/01/27 06:26:35;;;;;;;7.00;2.60;;;3.70;92.10;;;;;;4988174;28;20033;-69
2024/01/27 06:29:02;;;;;;;5.95;2.65;;;3.70;92.10;;;;;;4980509;28;20061;-69
2024/01/27 06:31:28;;;;;;;4.28;2.88;;;3.70;92.10;;;;;;4983956;28;20038;-70
2024/01/27 06:33:53;;;;;;;6.80;3.00;;;3.80;92.10;;;;;;4983222;28;20389;-70
2024/01/27 06:36:19;;;;;;;5.32;2.70;;;3.70;92.10;;;;;;4980796;28;20424;-69
2024/01/27 06:38:44;;;;;;;6.50;3.10;;;3.70;92.10;;;;;;4986356;28;20030;-67
2024/01/27 06:41:10;;;;;;;8.02;3.60;;;3.70;92.10;;;;;;4986866;28;20440;-69
2024/01/27 06:43:36;;;;;;;6.82;3.10;;;3.70;92.10;;;;;;4988854;28;20481;-70
2024/01/27 06:46:01;;;;;;;9.07;3.75;;;3.70;92.10;;;;;;4986314;28;20026;-71
2024/01/27 06:48:27;;;;;;;9.55;5.05;;;3.70;92.10;;;;;;4981212;28;20027;-72
2024/01/27 06:50:52;;;;;;;9.25;4.53;;;3.60;92.10;;;;;;4980134;28;20059;-71
2024/01/27 06:53:21;;;;;;;9.23;4.45;;;3.60;92.10;;;;;;4981158;28;20096;-69
2024/01/27 06:55:47;;;;;;;10.43;4.05;;;3.60;92.10;;;;;;4979913;28;20026;-71
2024/01/27 06:58:13;;;;;;;7.75;3.97;;;3.60;92.20;;;;;;4987614;28;20162;-70
2024/01/27 07:00:38;;;;;;;8.30;4.18;;;3.60;92.10;;;;;;4988351;28;20101;-69
2024/01/27 07:03:04;;;;;;;9.20;4.82;;;3.60;92.20;;;;;;4988262;28;20488;-70
2024/01/27 07:05:32;;;;;;;9.23;3.80;;;3.50;92.20;;;;;;4991564;28;20027;-72
2024/01/27 07:07:57;;;;;;;6.38;3.90;;;3.60;92.20;;;;;;4990910;28;20041;-70
2024/01/27 07:10:23;;;;;;;6.00;3.50;;;3.60;92.20;;;;;;4991055;28;20045;-68
2024/01/27 07:12:48;;;;;;;6.10;2.80;;;3.50;92.20;;;;;;4990884;28;20049;-68
2024/01/27 07:15:14;;;;;;;5.72;2.90;;;3.60;92.20;;;;;;4991287;28;20032;-69
2024/01/27 07:17:39;;;;;;;4.97;2.75;;;3.60;92.20;;;;;;4992706;28;20392;-69
2024/01/27 07:20:06;;;;;;;4.43;2.78;;;3.60;92.20;;;;;;4989987;28;20034;-68
2024/01/27 07:22:31;;;;;;;7.38;3.70;;;3.60;92.20;;;;;;4991100;28;20054;-67
2024/01/27 07:24:57;;;;;;;6.40;3.25;;;3.60;92.20;;;;;;4985236;28;20110;-69
2024/01/27 07:27:23;;;;;;;5.43;3.15;;;3.60;92.20;;;;;;4983873;28;20026;-67
2024/01/27 07:29:49;;;;;;;6.20;3.80;;;3.70;92.20;;;;;;4982436;28;20023;-69
2024/01/27 07:32:14;;;;;;;9.00;3.70;;;3.60;92.20;;;;;;4983920;28;20541;-70
2024/01/27 07:34:41;;;;;;;9.65;4.70;;;3.60;92.20;;;;;;4986838;28;20038;-68
2024/01/27 07:37:08;;;;;;;8.60;4.50;;;3.60;92.20;;;;;;4982998;28;20030;-68
2024/01/27 07:39:33;;;;;;;10.32;5.22;;;3.60;92.20;;;;;;4988994;28;20092;-68
2024/01/27 07:41:59;;;;;;;8.75;4.38;;;3.50;92.20;;;;;;4989559;28;20030;-68
2024/01/27 07:44:24;;;;;;;9.90;4.45;;;3.50;92.20;;;;;;4988770;28;20026;-68
2024/01/27 07:46:50;;;;;;;10.85;5.07;;;3.50;92.20;;;;;;4989251;28;20054;-69
2024/01/27 07:49:15;;;;;;;11.55;5.22;;;3.50;92.20;;;;;;4988688;28;20026;-68
2024/01/27 07:51:41;;;;;;;10.55;5.32;;;3.50;92.20;;;;;;4988736;28;20030;-67
2024/01/27 07:54:06;;;;;;;10.13;5.55;;;3.50;92.30;;;;;;4978998;28;20122;-69
2024/01/27 07:56:32;;;;;;;9.02;4.78;;;3.50;92.30;;;;;;4979510;28;20039;-68
2024/01/27 07:58:58;;;;;;;10.35;5.10;;;3.50;92.30;;;;;;4985616;28;20061;-68
2024/01/27 08:01:23;;;;;;;12.93;5.93;;;3.50;92.30;;;;;;4985780;28;20022;-68
2024/01/27 08:03:49;;;;;;;10.93;6.25;;;3.50;92.30;;;;;;4985926;28;20623;-69
2024/01/27 08:06:17;;;;;;;13.57;5.93;;;3.50;92.40;;;;;;4980744;28;20046;-69
2024/01/27 08:08:45;;;;;;;12.32;5.10;;;3.50;92.40;;;;;;4984542;28;20213;-69
2024/01/27 08:11:10;;;;;;;10.13;4.88;;;3.60;92.40;;;;;;4984528;28;20042;-69
2024/01/27 08:13:36;;;;;;;13.02;6.30;;;3.60;92.40;;;;;;4983633;28;20030;-69
2024/01/27 08:16:02;;;;;;;11.00;5.03;;;3.60;92.50;;;;;;4986474;28;20940;-68
2024/01/27 08:18:28;;;;;;;6.18;3.90;;;3.60;92.50;;;;;;4988666;28;20041;-68
2024/01/27 08:20:53;;;;;;;9.32;5.10;;;3.70;92.50;;;;;;4984191;28;20038;-69
2024/01/27 08:23:19;;;;;;;8.63;4.50;;;3.70;92.40;;;;;;4975187;28;20023;-69
2024/01/27 08:25:47;;;;;;;10.90;5.25;;;3.70;92.50;;;;;;4983753;28;20076;-69
2024/01/27 08:28:12;;;;;;;7.18;4.25;;;3.80;92.40;;;;;;4980751;28;20061;-68
2024/01/27 08:30:38;;;;;;;7.25;3.70;;;3.80;92.40;;;;;;4984363;28;20026;-69
2024/01/27 08:33:05;;;;;;;7.82;4.30;;;3.90;92.40;;;;;;4983709;28;20019;-68
2024/01/27 08:35:30;;;;;;;8.80;4.82;;;3.90;92.30;;;;;;4982366;28;20062;-67
2024/01/27 08:37:56;;;;;;;8.65;4.43;;;4.00;92.40;;;;;;4987418;28;20124;-68
2024/01/27 08:40:22;;;;;;;8.40;5.10;;;4.10;92.30;;;;;;4988859;28;20030;-70
2024/01/27 08:42:47;;;;;;;11.93;5.53;;;4.10;92.30;;;;;;4987739;28;20029;-69
2024/01/27 08:45:13;;;;;;;8.85;4.55;;;4.10;92.30;;;;;;4988533;28;20026;-69
2024/01/27 08:47:39;;;;;;;8.57;4.95;;;4.10;92.30;;;;;;4990299;28;20688;-69
2024/01/27 08:50:05;;;;;;;15.23;6.47;;;4.20;92.30;;;;;;4984550;28;20026;-68
2024/01/27 08:52:31;;;;;;;12.45;5.72;;;4.20;92.20;;;;;;4984424;28;20113;-68
2024/01/27 08:54:56;;;;;;;9.23;4.80;;;4.20;92.30;;;;;;4987289;28;20117;-69
2024/01/27 08:57:22;;;;;;;10.73;5.05;;;4.30;92.30;;;;;;4989233;28;20073;-68
2024/01/27 08:59:47;;;;;;;9.40;4.97;;;4.30;92.50;;;;;;4987778;28;20030;-68
2024/01/27 09:02:13;;;;;;;7.45;4.00;;;4.40;92.20;;;;;;4988358;28;20034;-68
2024/01/27 09:04:38;;;;;;;10.32;5.90;;;4.40;92.20;;;;;;4988115;28;21541;-69
2024/01/27 09:07:04;;;;;;;8.82;4.68;;;4.40;92.10;;;;;;4987430;28;20448;-68
2024/01/27 09:09:30;;;;;;;8.55;4.60;;;4.50;92.10;;;;;;4985561;28;20023;-70
2024/01/27 09:11:55;;;;;;;8.50;4.63;;;4.50;92.40;;;;;;4988755;28;20057;-68
2024/01/27 09:14:21;;;;;;;8.52;4.72;;;4.50;92.10;;;;;;4985978;28;20038;-70
2024/01/27 09:16:47;;;;;;;13.07;7.25;;;4.60;92.10;;;;;;4986289;28;20525;-70
2024/01/27 09:19:12;;;;;;;10.98;6.40;;;4.60;92.00;;;;;;4990484;28;20031;-69
2024/01/27 09:21:38;;;;;;;10.18;4.90;;;4.60;92.00;;;;;;4988005;28;20034;-68
2024/01/27 09:24:03;;;;;;;9.02;4.25;;;4.70;92.00;;;;;;4986241;28;20113;-70
2024/01/27 09:26:29;;;;;;;9.13;4.68;;;4.80;91.90;;;;;;4984502;28;20117;-69
2024/01/27 09:28:55;;;;;;;11.88;5.60;;;4.80;91.90;;;;;;4990267;28;20029;-69
2024/01/27 09:31:22;;;;;;;12.02;6.70;;;4.90;91.90;;;;;;4990987;28;20022;-69
2024/01/27 09:33:50;;;;;;;10.40;6.20;;;4.80;91.90;;;;;;4991967;28;20105;-68
2024/01/27 09:36:15;;;;;;;7.68;4.82;;;4.80;91.90;;;;;;4989206;28;20608;-68
2024/01/27 09:38:41;;;;;;;7.57;4.20;;;4.80;91.90;;;;;;4991225;28;20071;-69
2024/01/27 09:41:07;;;;;;;8.43;4.43;;;4.90;92.00;;;;;;4992611;28;20064;-68
2024/01/27 09:43:33;;;;;;;10.23;5.90;;;4.90;91.90;;;;;;4987539;28;20049;-68
2024/01/27 09:45:59;;;;;;;12.40;6.70;;;4.90;91.80;;;;;;4991893;28;20073;-68
2024/01/27 09:48:25;;;;;;;10.57;6.13;;;4.90;91.90;;;;;;4994035;28;20105;-69
2024/01/27 09:50:52;;;;;;;10.80;5.20;;;4.90;91.90;;;;;;4992641;28;20018;-68
2024/01/27 09:53:18;;;;;;;6.25;3.47;;;5.00;91.90;;;;;;4993061;28;20030;-68
2024/01/27 09:55:44;;;;;;;15.07;7.53;;;5.10;91.90;;;;;;4993503;28;20389;-68
2024/01/27 09:58:11;;;;;;;10.45;7.20;;;5.10;91.80;;;;;;4988721;28;20034;-67
2024/01/27 10:00:38;;;;;;;12.63;6.80;;;5.10;91.80;;;;;;4993602;28;20038;-68
2024/01/27 10:03:06;;;;;;;11.80;6.88;;;5.10;91.80;;;;;;4989863;28;20026;-67
2024/01/27 10:05:32;;;;;;;11.23;6.68;;;5.10;91.80;;;;;;4987796;28;20038;-70
2024/01/27 10:07:58;;;;;;;9.55;5.68;;;5.10;91.80;;;;;;4988774;28;20030;-65
2024/01/27 10:10:23;;;;;;;12.93;6.00;;;5.20;91.80;;;;;;4987315;28;20449;-68
2024/01/27 10:12:53;;;;;;;12.02;4.70;;;5.30;91.80;;;;;;4987503;28;20081;-68
2024/01/27 10:15:22;;;;;;;10.40;5.53;;;5.30;91.80;;;;;;4988496;28;20037;-69
2024/01/27 10:17:48;;;;;;;10.80;6.40;;;5.30;91.80;;;;;;4986412;28;20033;-68
2024/01/27 10:20:15;;;;;;;10.70;5.57;;;5.30;91.80;;;;;;4990798;28;20440;-68
2024/01/27 10:22:42;;;;;;;6.93;4.10;;;5.30;91.70;;;;;;4987065;28;20413;-66
2024/01/27 10:25:10;;;;;;;8.93;4.40;;;5.40;91.70;;;;;;4990286;28;20044;-68
2024/01/27 10:27:35;;;;;;;5.80;3.88;;;5.50;91.70;;;;;;4988991;28;20080;-67
2024/01/27 10:30:02;;;;;;;6.57;3.72;;;5.50;91.70;;;;;;4989638;28;20034;-68
2024/01/27 10:32:28;;;;;;;5.40;3.00;;;5.60;91.60;;;;;;4990551;28;20042;-69
2024/01/27 10:35:08;;;;;;;7.03;3.30;;;5.70;91.60;;;;;;4989170;28;20034;-69
2024/01/27 10:37:34;;;;;;;7.15;4.10;;;5.80;91.60;;;;;;4983846;28;20060;-69
2024/01/27 10:40:09;;;;;;;9.20;5.03;;;5.80;91.50;;;;;;4988983;28;20481;-70
2024/01/27 10:42:37;;;;;;;11.35;5.43;;;5.80;91.50;;;;;;4986168;28;20072;-69
2024/01/27 10:45:04;;;;;;;7.30;4.30;;;5.90;91.50;;;;;;4988818;28;20121;-70
2024/01/27 10:47:31;;;;;;;7.70;3.90;;;5.90;91.40;;;;;;4989540;28;20034;-69
2024/01/27 10:49:58;;;;;;;6.43;3.35;;;6.00;91.40;;;;;;4991480;28;20018;-70
2024/01/27 10:52:28;;;;;;;7.03;3.10;;;6.10;91.40;;;;;;4994172;28;20041;-68
2024/01/27 10:55:03;;;;;;;5.43;3.08;;;6.20;91.30;;;;;;4984638;28;20065;-70
2024/01/27 10:57:30;;;;;;;6.25;2.80;;;6.30;91.30;;;;;;4987443;28;20397;-70
2024/01/27 10:59:57;;;;;;;5.40;2.80;;;6.30;91.20;;;;;;4987680;28;20030;-68
2024/01/27 11:02:23;;;;;;;7.22;3.75;;;6.40;91.20;;;;;;5014570;28;20711;-69
2024/01/27 11:04:55;;;;;;;12.00;6.15;;;6.50;91.10;;;;;;4987613;28;20057;-70
2024/01/27 11:07:22;;;;;;;10.90;5.35;;;6.60;91.00;;;;;;4989924;28;20018;-69
2024/01/27 11:09:50;;;;;;;9.15;4.53;;;6.60;90.90;;;;;;4990262;28;20125;-69
2024/01/27 11:12:16;;;;;;;8.18;4.28;;;6.70;90.80;;;;;;4989493;28;20022;-70
2024/01/27 11:14:42;;;;;;;7.13;4.00;;;6.70;90.80;;;;;;4989900;28;20023;-69
2024/01/27 11:17:07;;;;;;;6.18;3.60;;;6.80;90.80;;;;;;4990749;28;20443;-70
2024/01/27 11:19:34;;;;;;;11.05;5.30;;;6.90;90.70;;;;;;4987406;28;20046;-69
2024/01/27 11:22:02;;;;;;;10.65;3.72;;;6.80;90.70;;;;;;4985889;28;20023;-70
2024/01/27 11:24:27;;;;;;;6.95;2.80;;;6.90;90.70;;;;;;4988215;28;20041;-69
2024/01/27 11:27:06;;;;;;;4.93;2.53;;;6.90;90.70;;;;;;4991076;28;20019;-68
2024/01/27 11:29:32;;;;;;;6.07;3.42;;;7.00;90.70;;;;;;4989076;28;20068;-69
2024/01/27 11:32:02;;;;;;;4.95;2.83;;;7.10;90.60;;;;;;4989285;28;20180;-69
2024/01/27 11:34:27;;;;;;;6.80;3.00;;;7.20;90.50;;;;;;4989544;28;20500;-69
2024/01/27 11:36:53;;;;;;;4.13;2.60;;;7.20;90.80;;;;;;4992509;28;20035;-69
2024/01/27 11:39:28;;;;;;;6.38;3.50;;;7.30;90.50;;;;;;4986353;28;20449;-69
2024/01/27 11:42:08;;;;;;;6.45;3.30;;;7.40;90.40;;;;;;4987159;28;20037;-69
2024/01/27 11:44:37;;;;;;;5.25;2.55;;;7.40;90.30;;;;;;4991008;28;20035;-69
2024/01/27 11:47:03;;;;;;;6.07;2.83;;;7.60;90.30;;;;;;4989748;28;20381;-70
2024/01/27 11:49:29;;;;;;;7.30;3.58;;;7.60;90.30;;;;;;4989913;28;20462;-69
2024/01/27 11:51:55;;;;;;;9.13;4.43;;;7.70;90.20;;;;;;4989389;28;20105;-69
2024/01/27 11:54:20;;;;;;;7.50;3.58;;;7.80;90.10;;;;;;4987779;28;20026;-69
2024/01/27 11:56:46;;;;;;;9.80;3.88;;;7.90;90.20;;;;;;4989826;28;20493;-68
2024/01/27 11:59:11;;;;;;;6.43;3.28;;;7.90;89.60;;;;;;4985148;28;20030;-69
2024/01/27 12:01:38;;;;;;;4.43;2.75;;;7.90;89.40;;;;;;4985461;28;20494;-70
2024/01/27 12:04:07;;;;;;;6.55;3.10;;;7.90;89.40;;;;;;4988346;28;20022;-69
2024/01/27 12:06:33;;;;;;;5.45;2.55;;;8.00;89.50;;;;;;4987722;28;20030;-69
2024/01/27 12:08:58;;;;;;;4.47;2.20;;;8.00;89.40;;;;;;4986876;28;20033;-68
2024/01/27 12:11:27;;;;;;;3.50;2.30;;;8.10;89.40;;;;;;4989532;28;20445;-68
2024/01/27 12:13:53;;;;;;;3.15;2.13;;;8.10;89.30;;;;;;4988962;28;20030;-68
2024/01/27 12:16:21;;;;;;;4.88;2.63;;;8.30;90.00;;;;;;4984807;28;20030;-68
2024/01/27 12:18:46;;;;;;;7.53;3.63;;;9.30;89.20;;;;;;4989448;28;20030;-68
2024/01/27 12:21:12;;;;;;;11.13;4.70;;;10.70;85.30;;;;;;4988862;28;20022;-68
2024/01/27 12:23:50;;;;;;;6.43;3.92;;;11.60;81.40;;;;;;4988670;28;20496;-68
2024/01/27 12:26:15;;;;;;;8.15;3.28;;;12.30;78.50;;;;;;4990096;28;20076;-68
2024/01/27 12:28:41;;;;;;;7.05;2.80;;;12.30;76.40;;;;;;4990651;28;20034;-68
2024/01/27 12:31:07;;;;;;;5.50;2.40;;;11.30;77.40;;;;;;4986591;28;20022;-67
2024/01/27 12:33:32;;;;;;;9.20;3.40;;;10.50;79.40;;;;;;4987082;28;20026;-68
2024/01/27 12:35:58;;;;;;;5.60;2.33;;;10.10;81.40;;;;;;4983285;28;20026;-68
2024/01/27 12:38:23;;;;;;;8.63;3.40;;;9.80;82.70;;;;;;4985951;28;20023;-69
2024/01/27 12:40:49;;;;;;;5.20;2.70;;;10.00;83.70;;;;;;4989110;28;20369;-68
2024/01/27 12:43:15;;;;;;;6.03;3.45;;;11.10;82.20;;;;;;4987888;28;20173;-68
2024/01/27 12:45:41;;;;;;;7.85;3.00;;;11.90;79.50;;;;;;4988847;28;20404;-69
2024/01/27 12:48:06;;;;;;;8.00;3.60;;;12.40;77.70;;;;;;4988584;28;20015;-69